METAR Data
IDs: Format: Raw Decoded Include TAF

Data at: 1321 UTC 20 Oct 2021

LYTV 201300Z 22005KT 130V270 9999 SCT026 20/15 Q1026 NOSIG